sensor_id;sensor_type;location;lat;lon;timestamp;temperature;humidity
80695;DHT22;70059;42.702;23.312;2023-11-19T00:02:08;5.80;61.00
80695;DHT22;70059;42.702;23.312;2023-11-19T00:04:38;5.60;61.10
80695;DHT22;70059;42.702;23.312;2023-11-19T00:07:06;5.80;61.40
80695;DHT22;70059;42.702;23.312;2023-11-19T00:09:36;5.80;60.70
80695;DHT22;70059;42.702;23.312;2023-11-19T00:12:06;5.70;61.20
80695;DHT22;70059;42.702;23.312;2023-11-19T00:14:33;5.70;60.90
80695;DHT22;70059;42.702;23.312;2023-11-19T00:16:58;5.80;61.20
80695;DHT22;70059;42.702;23.312;2023-11-19T00:19:24;5.80;61.20
80695;DHT22;70059;42.702;23.312;2023-11-19T00:21:50;5.90;60.60
80695;DHT22;70059;42.702;23.312;2023-11-19T00:24:16;6.10;60.10
80695;DHT22;70059;42.702;23.312;2023-11-19T00:26:43;6.00;59.70
80695;DHT22;70059;42.702;23.312;2023-11-19T00:29:08;6.00;59.80
80695;DHT22;70059;42.702;23.312;2023-11-19T00:31:34;5.80;59.50
80695;DHT22;70059;42.702;23.312;2023-11-19T00:34:00;5.70;60.70
80695;DHT22;70059;42.702;23.312;2023-11-19T00:36:27;5.60;61.00
80695;DHT22;70059;42.702;23.312;2023-11-19T00:38:53;5.50;61.40
80695;DHT22;70059;42.702;23.312;2023-11-19T00:41:19;5.60;61.00
80695;DHT22;70059;42.702;23.312;2023-11-19T00:43:45;5.40;61.40
80695;DHT22;70059;42.702;23.312;2023-11-19T00:46:11;5.40;61.80
80695;DHT22;70059;42.702;23.312;2023-11-19T00:48:39;5.60;61.70
80695;DHT22;70059;42.702;23.312;2023-11-19T00:51:05;5.80;60.70
80695;DHT22;70059;42.702;23.312;2023-11-19T00:53:31;5.90;60.80
80695;DHT22;70059;42.702;23.312;2023-11-19T00:55:57;5.80;60.90
80695;DHT22;70059;42.702;23.312;2023-11-19T00:58:23;5.80;60.80
80695;DHT22;70059;42.702;23.312;2023-11-19T01:00:49;5.70;60.30
80695;DHT22;70059;42.702;23.312;2023-11-19T01:03:15;5.50;62.00
80695;DHT22;70059;42.702;23.312;2023-11-19T01:05:41;5.50;62.10
80695;DHT22;70059;42.702;23.312;2023-11-19T01:08:07;5.40;62.30
80695;DHT22;70059;42.702;23.312;2023-11-19T01:10:33;5.50;62.00
80695;DHT22;70059;42.702;23.312;2023-11-19T01:12:59;5.70;61.50
80695;DHT22;70059;42.702;23.312;2023-11-19T01:15:25;5.90;60.50
80695;DHT22;70059;42.702;23.312;2023-11-19T01:17:51;6.00;60.00
80695;DHT22;70059;42.702;23.312;2023-11-19T01:20:17;6.10;60.00
80695;DHT22;70059;42.702;23.312;2023-11-19T01:22:43;6.10;59.40
80695;DHT22;70059;42.702;23.312;2023-11-19T01:25:09;6.00;59.40
80695;DHT22;70059;42.702;23.312;2023-11-19T01:27:34;5.80;60.00
80695;DHT22;70059;42.702;23.312;2023-11-19T01:30:04;5.90;60.80
80695;DHT22;70059;42.702;23.312;2023-11-19T01:32:31;5.90;60.00
80695;DHT22;70059;42.702;23.312;2023-11-19T01:34:57;5.80;59.70
80695;DHT22;70059;42.702;23.312;2023-11-19T01:37:22;5.90;59.80
80695;DHT22;70059;42.702;23.312;2023-11-19T01:39:48;5.50;60.00
80695;DHT22;70059;42.702;23.312;2023-11-19T01:42:14;5.50;60.90
80695;DHT22;70059;42.702;23.312;2023-11-19T01:44:41;5.60;61.10
80695;DHT22;70059;42.702;23.312;2023-11-19T01:47:07;5.50;60.20
80695;DHT22;70059;42.702;23.312;2023-11-19T01:49:33;5.60;60.90
80695;DHT22;70059;42.702;23.312;2023-11-19T01:52:00;5.50;61.10
80695;DHT22;70059;42.702;23.312;2023-11-19T01:54:27;5.30;61.60
80695;DHT22;70059;42.702;23.312;2023-11-19T01:56:55;5.30;61.60
80695;DHT22;70059;42.702;23.312;2023-11-19T01:59:23;5.30;61.30
80695;DHT22;70059;42.702;23.312;2023-11-19T02:01:55;5.40;61.30
80695;DHT22;70059;42.702;23.312;2023-11-19T02:04:21;5.30;61.00
80695;DHT22;70059;42.702;23.312;2023-11-19T02:06:48;5.30;60.90
80695;DHT22;70059;42.702;23.312;2023-11-19T02:09:18;5.20;60.50
80695;DHT22;70059;42.702;23.312;2023-11-19T02:11:45;5.20;61.20
80695;DHT22;70059;42.702;23.312;2023-11-19T02:14:15;5.30;60.80
80695;DHT22;70059;42.702;23.312;2023-11-19T02:16:40;5.40;60.50
80695;DHT22;70059;42.702;23.312;2023-11-19T02:19:06;5.10;61.20
80695;DHT22;70059;42.702;23.312;2023-11-19T02:21:33;5.20;61.20
80695;DHT22;70059;42.702;23.312;2023-11-19T02:23:59;5.10;61.60
80695;DHT22;70059;42.702;23.312;2023-11-19T02:29:09;5.00;61.60
80695;DHT22;70059;42.702;23.312;2023-11-19T02:31:35;5.00;61.50
80695;DHT22;70059;42.702;23.312;2023-11-19T02:34:01;4.80;61.70
80695;DHT22;70059;42.702;23.312;2023-11-19T02:36:28;4.70;62.60
80695;DHT22;70059;42.702;23.312;2023-11-19T02:38:54;4.70;62.70
80695;DHT22;70059;42.702;23.312;2023-11-19T02:41:20;4.70;62.60
80695;DHT22;70059;42.702;23.312;2023-11-19T02:43:46;4.60;63.40
80695;DHT22;70059;42.702;23.312;2023-11-19T02:46:14;4.50;63.50
80695;DHT22;70059;42.702;23.312;2023-11-19T02:48:39;4.50;64.00
80695;DHT22;70059;42.702;23.312;2023-11-19T02:51:06;4.50;63.90
80695;DHT22;70059;42.702;23.312;2023-11-19T02:53:35;4.40;63.90
80695;DHT22;70059;42.702;23.312;2023-11-19T02:56:01;4.30;64.40
80695;DHT22;70059;42.702;23.312;2023-11-19T02:58:31;4.30;64.70
80695;DHT22;70059;42.702;23.312;2023-11-19T03:00:57;4.30;65.10
80695;DHT22;70059;42.702;23.312;2023-11-19T03:03:25;4.50;64.70
80695;DHT22;70059;42.702;23.312;2023-11-19T03:05:56;4.50;64.10
80695;DHT22;70059;42.702;23.312;2023-11-19T03:08:22;4.60;63.50
80695;DHT22;70059;42.702;23.312;2023-11-19T03:10:48;4.50;63.60
80695;DHT22;70059;42.702;23.312;2023-11-19T03:13:15;4.50;64.00
80695;DHT22;70059;42.702;23.312;2023-11-19T03:15:42;4.60;63.50
80695;DHT22;70059;42.702;23.312;2023-11-19T03:18:08;4.60;63.50
80695;DHT22;70059;42.702;23.312;2023-11-19T03:20:34;4.50;63.70
80695;DHT22;70059;42.702;23.312;2023-11-19T03:23:00;4.50;63.80
80695;DHT22;70059;42.702;23.312;2023-11-19T03:25:27;4.60;63.70
80695;DHT22;70059;42.702;23.312;2023-11-19T03:27:58;4.60;64.50
80695;DHT22;70059;42.702;23.312;2023-11-19T03:30:24;4.60;63.40
80695;DHT22;70059;42.702;23.312;2023-11-19T03:32:50;4.60;63.60
80695;DHT22;70059;42.702;23.312;2023-11-19T03:35:16;4.60;63.80
80695;DHT22;70059;42.702;23.312;2023-11-19T03:37:41;4.60;63.40
80695;DHT22;70059;42.702;23.312;2023-11-19T03:40:09;4.60;63.20
80695;DHT22;70059;42.702;23.312;2023-11-19T03:42:35;4.60;63.40
80695;DHT22;70059;42.702;23.312;2023-11-19T03:45:01;4.60;63.20
80695;DHT22;70059;42.702;23.312;2023-11-19T03:47:28;4.60;63.70
80695;DHT22;70059;42.702;23.312;2023-11-19T03:49:54;4.60;63.40
80695;DHT22;70059;42.702;23.312;2023-11-19T03:52:20;4.60;63.60
80695;DHT22;70059;42.702;23.312;2023-11-19T03:54:46;4.50;63.70
80695;DHT22;70059;42.702;23.312;2023-11-19T03:57:12;4.60;63.80
80695;DHT22;70059;42.702;23.312;2023-11-19T03:59:39;4.60;63.90
80695;DHT22;70059;42.702;23.312;2023-11-19T04:02:05;4.70;63.40
80695;DHT22;70059;42.702;23.312;2023-11-19T04:04:31;4.80;63.40
80695;DHT22;70059;42.702;23.312;2023-11-19T04:06:57;4.80;62.90
80695;DHT22;70059;42.702;23.312;2023-11-19T04:09:23;4.80;63.00
80695;DHT22;70059;42.702;23.312;2023-11-19T04:11:49;4.90;62.70
80695;DHT22;70059;42.702;23.312;2023-11-19T04:14:15;5.00;62.60
80695;DHT22;70059;42.702;23.312;2023-11-19T04:16:44;5.10;62.00
80695;DHT22;70059;42.702;23.312;2023-11-19T04:19:10;5.20;61.90
80695;DHT22;70059;42.702;23.312;2023-11-19T04:21:36;5.40;60.40
80695;DHT22;70059;42.702;23.312;2023-11-19T04:24:02;5.30;60.30
80695;DHT22;70059;42.702;23.312;2023-11-19T04:26:27;5.20;60.70
80695;DHT22;70059;42.702;23.312;2023-11-19T04:28:53;5.20;60.90
80695;DHT22;70059;42.702;23.312;2023-11-19T04:31:18;5.40;61.00
80695;DHT22;70059;42.702;23.312;2023-11-19T04:33:44;5.10;60.80
80695;DHT22;70059;42.702;23.312;2023-11-19T04:36:10;5.00;61.70
80695;DHT22;70059;42.702;23.312;2023-11-19T04:38:37;5.10;62.20
80695;DHT22;70059;42.702;23.312;2023-11-19T04:41:05;5.20;61.00
80695;DHT22;70059;42.702;23.312;2023-11-19T04:43:31;5.40;59.50
80695;DHT22;70059;42.702;23.312;2023-11-19T04:45:57;5.20;60.40
80695;DHT22;70059;42.702;23.312;2023-11-19T04:48:23;5.00;60.90
80695;DHT22;70059;42.702;23.312;2023-11-19T04:50:49;5.00;61.60
80695;DHT22;70059;42.702;23.312;2023-11-19T04:53:18;5.10;61.60
80695;DHT22;70059;42.702;23.312;2023-11-19T04:55:44;4.90;61.80
80695;DHT22;70059;42.702;23.312;2023-11-19T04:58:10;4.80;61.30
80695;DHT22;70059;42.702;23.312;2023-11-19T05:00:35;4.90;61.20
80695;DHT22;70059;42.702;23.312;2023-11-19T05:03:01;4.80;62.30
80695;DHT22;70059;42.702;23.312;2023-11-19T05:05:27;4.70;62.60
80695;DHT22;70059;42.702;23.312;2023-11-19T05:07:52;4.70;62.20
80695;DHT22;70059;42.702;23.312;2023-11-19T05:10:18;4.90;62.10
80695;DHT22;70059;42.702;23.312;2023-11-19T05:12:44;5.10;61.10
80695;DHT22;70059;42.702;23.312;2023-11-19T05:15:10;5.30;60.60
80695;DHT22;70059;42.702;23.312;2023-11-19T05:17:37;5.30;60.00
80695;DHT22;70059;42.702;23.312;2023-11-19T05:20:04;5.30;60.00
80695;DHT22;70059;42.702;23.312;2023-11-19T05:22:30;5.40;59.90
80695;DHT22;70059;42.702;23.312;2023-11-19T05:24:56;5.50;59.80
80695;DHT22;70059;42.702;23.312;2023-11-19T05:27:22;5.70;58.60
80695;DHT22;70059;42.702;23.312;2023-11-19T05:29:49;5.70;58.50
80695;DHT22;70059;42.702;23.312;2023-11-19T05:32:15;5.70;58.30
80695;DHT22;70059;42.702;23.312;2023-11-19T05:34:40;5.60;58.70
80695;DHT22;70059;42.702;23.312;2023-11-19T05:37:06;5.60;59.00
80695;DHT22;70059;42.702;23.312;2023-11-19T05:39:33;5.60;58.90
80695;DHT22;70059;42.702;23.312;2023-11-19T05:41:58;5.50;58.60
80695;DHT22;70059;42.702;23.312;2023-11-19T05:44:24;5.50;59.00
80695;DHT22;70059;42.702;23.312;2023-11-19T05:46:50;5.50;58.90
80695;DHT22;70059;42.702;23.312;2023-11-19T05:49:15;5.60;59.00
80695;DHT22;70059;42.702;23.312;2023-11-19T05:51:41;5.70;58.60
80695;DHT22;70059;42.702;23.312;2023-11-19T05:54:08;5.80;57.80
80695;DHT22;70059;42.702;23.312;2023-11-19T05:56:35;5.50;58.50
80695;DHT22;70059;42.702;23.312;2023-11-19T05:59:01;5.40;58.60
80695;DHT22;70059;42.702;23.312;2023-11-19T06:01:29;5.10;59.30
80695;DHT22;70059;42.702;23.312;2023-11-19T06:03:55;5.00;60.30
80695;DHT22;70059;42.702;23.312;2023-11-19T06:06:20;5.00;61.40
80695;DHT22;70059;42.702;23.312;2023-11-19T06:08:46;5.20;60.20
80695;DHT22;70059;42.702;23.312;2023-11-19T06:11:12;5.30;59.70
80695;DHT22;70059;42.702;23.312;2023-11-19T06:13:43;5.30;59.30
80695;DHT22;70059;42.702;23.312;2023-11-19T06:16:09;5.10;59.80
80695;DHT22;70059;42.702;23.312;2023-11-19T06:18:36;4.90;60.70
80695;DHT22;70059;42.702;23.312;2023-11-19T06:21:02;5.00;60.90
80695;DHT22;70059;42.702;23.312;2023-11-19T06:23:28;5.00;60.80
80695;DHT22;70059;42.702;23.312;2023-11-19T06:25:53;5.10;60.40
80695;DHT22;70059;42.702;23.312;2023-11-19T06:28:19;5.00;60.40
80695;DHT22;70059;42.702;23.312;2023-11-19T06:30:45;4.90;61.10
80695;DHT22;70059;42.702;23.312;2023-11-19T06:33:14;4.80;60.90
80695;DHT22;70059;42.702;23.312;2023-11-19T06:35:40;4.80;61.50
80695;DHT22;70059;42.702;23.312;2023-11-19T06:38:06;4.90;61.20
80695;DHT22;70059;42.702;23.312;2023-11-19T06:40:35;5.10;60.80
80695;DHT22;70059;42.702;23.312;2023-11-19T06:43:01;5.10;60.10
80695;DHT22;70059;42.702;23.312;2023-11-19T06:45:28;4.80;61.60
80695;DHT22;70059;42.702;23.312;2023-11-19T06:47:53;5.00;61.30
80695;DHT22;70059;42.702;23.312;2023-11-19T06:50:19;5.00;60.60
80695;DHT22;70059;42.702;23.312;2023-11-19T06:52:45;4.80;60.90
80695;DHT22;70059;42.702;23.312;2023-11-19T06:55:11;4.90;61.30
80695;DHT22;70059;42.702;23.312;2023-11-19T06:57:37;5.10;60.30
80695;DHT22;70059;42.702;23.312;2023-11-19T07:00:03;5.30;60.60
80695;DHT22;70059;42.702;23.312;2023-11-19T07:02:31;5.40;58.80
80695;DHT22;70059;42.702;23.312;2023-11-19T07:04:57;5.40;58.60
80695;DHT22;70059;42.702;23.312;2023-11-19T07:07:22;5.60;58.10
80695;DHT22;70059;42.702;23.312;2023-11-19T07:09:48;5.60;57.20
80695;DHT22;70059;42.702;23.312;2023-11-19T07:12:14;5.40;57.00
80695;DHT22;70059;42.702;23.312;2023-11-19T07:14:40;5.50;57.80
80695;DHT22;70059;42.702;23.312;2023-11-19T07:17:07;5.60;57.30
80695;DHT22;70059;42.702;23.312;2023-11-19T07:19:34;5.80;56.80
80695;DHT22;70059;42.702;23.312;2023-11-19T07:22:02;5.60;56.60
80695;DHT22;70059;42.702;23.312;2023-11-19T07:24:27;5.60;57.10
80695;DHT22;70059;42.702;23.312;2023-11-19T07:26:54;5.60;57.20
80695;DHT22;70059;42.702;23.312;2023-11-19T07:29:20;5.90;56.80
80695;DHT22;70059;42.702;23.312;2023-11-19T07:31:48;5.50;57.20
80695;DHT22;70059;42.702;23.312;2023-11-19T07:34:14;5.60;57.60
80695;DHT22;70059;42.702;23.312;2023-11-19T07:36:40;5.70;57.30
80695;DHT22;70059;42.702;23.312;2023-11-19T07:39:06;5.80;57.00
80695;DHT22;70059;42.702;23.312;2023-11-19T07:41:32;5.70;56.60
80695;DHT22;70059;42.702;23.312;2023-11-19T07:43:58;5.70;56.60
80695;DHT22;70059;42.702;23.312;2023-11-19T07:46:24;5.80;56.60
80695;DHT22;70059;42.702;23.312;2023-11-19T07:48:50;5.80;56.60
80695;DHT22;70059;42.702;23.312;2023-11-19T07:51:17;5.90;55.90
80695;DHT22;70059;42.702;23.312;2023-11-19T07:53:42;6.20;55.10
80695;DHT22;70059;42.702;23.312;2023-11-19T07:56:08;6.20;54.90
80695;DHT22;70059;42.702;23.312;2023-11-19T07:58:34;6.30;54.80
80695;DHT22;70059;42.702;23.312;2023-11-19T08:01:00;6.30;54.50
80695;DHT22;70059;42.702;23.312;2023-11-19T08:03:27;6.30;54.30
80695;DHT22;70059;42.702;23.312;2023-11-19T08:05:56;6.50;54.40
80695;DHT22;70059;42.702;23.312;2023-11-19T08:08:24;6.20;54.00
80695;DHT22;70059;42.702;23.312;2023-11-19T08:10:50;6.30;54.40
80695;DHT22;70059;42.702;23.312;2023-11-19T08:13:18;6.80;53.60
80695;DHT22;70059;42.702;23.312;2023-11-19T08:15:43;7.10;52.00
80695;DHT22;70059;42.702;23.312;2023-11-19T08:18:10;7.40;50.90
80695;DHT22;70059;42.702;23.312;2023-11-19T08:20:36;7.40;50.80
80695;DHT22;70059;42.702;23.312;2023-11-19T08:23:02;7.10;50.50
80695;DHT22;70059;42.702;23.312;2023-11-19T08:25:31;6.50;51.90
80695;DHT22;70059;42.702;23.312;2023-11-19T08:27:58;6.10;54.00
80695;DHT22;70059;42.702;23.312;2023-11-19T08:30:24;6.00;54.30
80695;DHT22;70059;42.702;23.312;2023-11-19T08:32:49;5.90;54.90
80695;DHT22;70059;42.702;23.312;2023-11-19T08:35:15;5.80;54.90
80695;DHT22;70059;42.702;23.312;2023-11-19T08:37:41;5.70;55.40
80695;DHT22;70059;42.702;23.312;2023-11-19T08:40:08;5.50;56.60
80695;DHT22;70059;42.702;23.312;2023-11-19T08:42:33;5.20;56.50
80695;DHT22;70059;42.702;23.312;2023-11-19T08:44:59;5.20;57.10
80695;DHT22;70059;42.702;23.312;2023-11-19T08:47:25;5.20;57.30
80695;DHT22;70059;42.702;23.312;2023-11-19T08:49:51;5.20;57.80
80695;DHT22;70059;42.702;23.312;2023-11-19T08:52:18;5.00;57.50
80695;DHT22;70059;42.702;23.312;2023-11-19T08:54:44;4.90;58.20
80695;DHT22;70059;42.702;23.312;2023-11-19T08:57:09;5.10;57.80
80695;DHT22;70059;42.702;23.312;2023-11-19T08:59:35;5.30;57.10
80695;DHT22;70059;42.702;23.312;2023-11-19T09:02:03;5.60;56.60
80695;DHT22;70059;42.702;23.312;2023-11-19T09:04:29;5.90;55.70
80695;DHT22;70059;42.702;23.312;2023-11-19T09:06:57;6.50;54.00
80695;DHT22;70059;42.702;23.312;2023-11-19T09:09:23;7.20;52.50
80695;DHT22;70059;42.702;23.312;2023-11-19T09:11:48;7.30;51.40
80695;DHT22;70059;42.702;23.312;2023-11-19T09:14:14;7.60;49.80
80695;DHT22;70059;42.702;23.312;2023-11-19T09:16:40;7.70;49.70
80695;DHT22;70059;42.702;23.312;2023-11-19T09:19:05;7.80;49.80
80695;DHT22;70059;42.702;23.312;2023-11-19T09:21:31;7.40;48.80
80695;DHT22;70059;42.702;23.312;2023-11-19T09:23:57;6.80;50.60
80695;DHT22;70059;42.702;23.312;2023-11-19T09:26:22;6.60;52.00
80695;DHT22;70059;42.702;23.312;2023-11-19T09:28:48;6.80;52.40
80695;DHT22;70059;42.702;23.312;2023-11-19T09:31:17;7.10;51.90
80695;DHT22;70059;42.702;23.312;2023-11-19T09:33:44;6.90;52.10
80695;DHT22;70059;42.702;23.312;2023-11-19T09:36:12;7.10;51.30
80695;DHT22;70059;42.702;23.312;2023-11-19T09:38:39;7.00;51.20
80695;DHT22;70059;42.702;23.312;2023-11-19T09:41:06;7.20;50.90
80695;DHT22;70059;42.702;23.312;2023-11-19T09:43:35;7.30;50.50
80695;DHT22;70059;42.702;23.312;2023-11-19T09:46:09;7.20;50.00
80695;DHT22;70059;42.702;23.312;2023-11-19T09:48:37;7.00;50.70
80695;DHT22;70059;42.702;23.312;2023-11-19T09:51:04;6.80;50.80
80695;DHT22;70059;42.702;23.312;2023-11-19T09:53:31;6.90;51.30
80695;DHT22;70059;42.702;23.312;2023-11-19T09:55:58;7.40;50.60
80695;DHT22;70059;42.702;23.312;2023-11-19T09:58:25;7.60;49.40
80695;DHT22;70059;42.702;23.312;2023-11-19T10:00:51;7.50;48.70
80695;DHT22;70059;42.702;23.312;2023-11-19T10:03:18;7.40;49.60
80695;DHT22;70059;42.702;23.312;2023-11-19T10:05:43;7.30;49.80
80695;DHT22;70059;42.702;23.312;2023-11-19T10:08:09;7.20;50.40
80695;DHT22;70059;42.702;23.312;2023-11-19T10:10:37;7.50;50.30
80695;DHT22;70059;42.702;23.312;2023-11-19T10:13:03;7.60;49.80
80695;DHT22;70059;42.702;23.312;2023-11-19T10:15:35;7.50;49.70
80695;DHT22;70059;42.702;23.312;2023-11-19T10:18:01;7.40;49.50
80695;DHT22;70059;42.702;23.312;2023-11-19T10:20:26;7.60;49.70
80695;DHT22;70059;42.702;23.312;2023-11-19T10:22:53;7.40;49.80
80695;DHT22;70059;42.702;23.312;2023-11-19T10:25:25;7.30;50.00
80695;DHT22;70059;42.702;23.312;2023-11-19T10:27:55;7.60;49.80
80695;DHT22;70059;42.702;23.312;2023-11-19T10:30:23;7.80;49.00
80695;DHT22;70059;42.702;23.312;2023-11-19T10:33:13;8.00;48.90
80695;DHT22;70059;42.702;23.312;2023-11-19T10:35:55;8.30;48.20
80695;DHT22;70059;42.702;23.312;2023-11-19T10:38:25;8.40;47.10
80695;DHT22;70059;42.702;23.312;2023-11-19T10:40:51;8.40;47.20
80695;DHT22;70059;42.702;23.312;2023-11-19T10:43:20;8.60;46.70
80695;DHT22;70059;42.702;23.312;2023-11-19T10:45:50;8.60;46.50
80695;DHT22;70059;42.702;23.312;2023-11-19T10:48:17;8.20;46.60
80695;DHT22;70059;42.702;23.312;2023-11-19T10:50:44;8.40;47.40
80695;DHT22;70059;42.702;23.312;2023-11-19T10:53:12;9.30;46.20
80695;DHT22;70059;42.702;23.312;2023-11-19T10:55:41;10.60;42.40
80695;DHT22;70059;42.702;23.312;2023-11-19T10:58:09;10.70;40.90
80695;DHT22;70059;42.702;23.312;2023-11-19T11:00:45;11.20;40.20
80695;DHT22;70059;42.702;23.312;2023-11-19T11:03:23;11.10;39.10
80695;DHT22;70059;42.702;23.312;2023-11-19T11:05:51;12.30;37.80
80695;DHT22;70059;42.702;23.312;2023-11-19T11:08:20;13.90;34.10
80695;DHT22;70059;42.702;23.312;2023-11-19T11:10:53;15.20;32.30
80695;DHT22;70059;42.702;23.312;2023-11-19T11:13:19;15.80;30.50
80695;DHT22;70059;42.702;23.312;2023-11-19T11:15:48;16.60;29.40
80695;DHT22;70059;42.702;23.312;2023-11-19T11:18:14;17.50;28.00
80695;DHT22;70059;42.702;23.312;2023-11-19T11:20:41;17.70;27.30
80695;DHT22;70059;42.702;23.312;2023-11-19T11:34:09;14.70;31.00
80695;DHT22;70059;42.702;23.312;2023-11-19T11:39:22;14.90;29.90
80695;DHT22;70059;42.702;23.312;2023-11-19T11:50:22;15.80;29.30
80695;DHT22;70059;42.702;23.312;2023-11-19T11:55:37;15.40;29.20
80695;DHT22;70059;42.702;23.312;2023-11-19T11:58:20;15.40;29.80
80695;DHT22;70059;42.702;23.312;2023-11-19T12:00:47;15.10;30.50
80695;DHT22;70059;42.702;23.312;2023-11-19T12:03:13;14.80;30.50
80695;DHT22;70059;42.702;23.312;2023-11-19T12:05:41;14.30;31.70
80695;DHT22;70059;42.702;23.312;2023-11-19T12:08:09;13.90;32.40
80695;DHT22;70059;42.702;23.312;2023-11-19T12:13:16;13.80;33.10
80695;DHT22;70059;42.702;23.312;2023-11-19T12:18:31;13.60;33.20
80695;DHT22;70059;42.702;23.312;2023-11-19T12:20:58;13.50;33.50
80695;DHT22;70059;42.702;23.312;2023-11-19T12:23:31;13.50;33.90
80695;DHT22;70059;42.702;23.312;2023-11-19T12:25:58;13.70;34.00
80695;DHT22;70059;42.702;23.312;2023-11-19T12:28:24;13.90;33.60
80695;DHT22;70059;42.702;23.312;2023-11-19T12:30:52;14.00;32.90
80695;DHT22;70059;42.702;23.312;2023-11-19T12:33:19;14.10;32.60
80695;DHT22;70059;42.702;23.312;2023-11-19T12:35:48;14.00;32.60
80695;DHT22;70059;42.702;23.312;2023-11-19T12:38:25;13.90;33.00
80695;DHT22;70059;42.702;23.312;2023-11-19T12:41:04;13.90;33.00
80695;DHT22;70059;42.702;23.312;2023-11-19T12:43:30;13.70;33.30
80695;DHT22;70059;42.702;23.312;2023-11-19T12:45:56;14.00;33.30
80695;DHT22;70059;42.702;23.312;2023-11-19T12:48:22;14.30;33.00
80695;DHT22;70059;42.702;23.312;2023-11-19T12:50:56;14.70;31.90
80695;DHT22;70059;42.702;23.312;2023-11-19T12:53:24;15.00;31.20
80695;DHT22;70059;42.702;23.312;2023-11-19T12:55:53;15.00;30.60
80695;DHT22;70059;42.702;23.312;2023-11-19T12:58:35;14.90;30.80
80695;DHT22;70059;42.702;23.312;2023-11-19T13:01:04;15.20;30.70
80695;DHT22;70059;42.702;23.312;2023-11-19T13:03:35;15.70;30.50
80695;DHT22;70059;42.702;23.312;2023-11-19T13:06:07;16.20;29.20
80695;DHT22;70059;42.702;23.312;2023-11-19T13:08:51;16.70;28.40
80695;DHT22;70059;42.702;23.312;2023-11-19T13:11:33;16.80;28.30
80695;DHT22;70059;42.702;23.312;2023-11-19T13:14:06;16.90;27.90
80695;DHT22;70059;42.702;23.312;2023-11-19T13:16:37;17.30;27.30
80695;DHT22;70059;42.702;23.312;2023-11-19T13:19:02;17.60;27.10
80695;DHT22;70059;42.702;23.312;2023-11-19T13:21:30;17.80;26.60
80695;DHT22;70059;42.702;23.312;2023-11-19T13:23:56;17.70;26.70
80695;DHT22;70059;42.702;23.312;2023-11-19T13:26:22;17.70;26.80
80695;DHT22;70059;42.702;23.312;2023-11-19T13:28:48;17.80;26.00
80695;DHT22;70059;42.702;23.312;2023-11-19T13:31:14;17.70;26.60
80695;DHT22;70059;42.702;23.312;2023-11-19T13:33:41;17.90;26.60
80695;DHT22;70059;42.702;23.312;2023-11-19T13:36:07;17.70;26.60
80695;DHT22;70059;42.702;23.312;2023-11-19T13:38:36;17.60;27.10
80695;DHT22;70059;42.702;23.312;2023-11-19T13:41:06;17.80;26.70
80695;DHT22;70059;42.702;23.312;2023-11-19T13:43:32;18.10;26.60
80695;DHT22;70059;42.702;23.312;2023-11-19T13:45:58;17.90;26.40
80695;DHT22;70059;42.702;23.312;2023-11-19T13:48:24;17.70;26.60
80695;DHT22;70059;42.702;23.312;2023-11-19T13:50:50;17.60;27.00
80695;DHT22;70059;42.702;23.312;2023-11-19T13:53:16;17.30;27.40
80695;DHT22;70059;42.702;23.312;2023-11-19T13:55:42;17.10;27.80
80695;DHT22;70059;42.702;23.312;2023-11-19T13:58:09;16.70;28.10
80695;DHT22;70059;42.702;23.312;2023-11-19T14:00:35;16.30;28.60
80695;DHT22;70059;42.702;23.312;2023-11-19T14:03:00;16.10;29.20
80695;DHT22;70059;42.702;23.312;2023-11-19T14:05:26;15.80;29.30
80695;DHT22;70059;42.702;23.312;2023-11-19T14:07:52;15.40;30.00
80695;DHT22;70059;42.702;23.312;2023-11-19T14:10:19;15.00;30.10
80695;DHT22;70059;42.702;23.312;2023-11-19T14:12:45;14.60;31.10
80695;DHT22;70059;42.702;23.312;2023-11-19T14:15:11;14.20;31.70
80695;DHT22;70059;42.702;23.312;2023-11-19T14:17:40;13.70;33.00
80695;DHT22;70059;42.702;23.312;2023-11-19T14:20:06;13.30;33.80
80695;DHT22;70059;42.702;23.312;2023-11-19T14:22:39;12.90;34.80
80695;DHT22;70059;42.702;23.312;2023-11-19T14:25:05;12.50;35.90
80695;DHT22;70059;42.702;23.312;2023-11-19T14:27:39;12.10;37.00
80695;DHT22;70059;42.702;23.312;2023-11-19T14:30:09;11.80;37.70
80695;DHT22;70059;42.702;23.312;2023-11-19T14:32:36;11.30;38.80
80695;DHT22;70059;42.702;23.312;2023-11-19T14:35:03;11.00;39.70
80695;DHT22;70059;42.702;23.312;2023-11-19T14:37:29;10.70;40.80
80695;DHT22;70059;42.702;23.312;2023-11-19T14:39:56;10.40;42.00
80695;DHT22;70059;42.702;23.312;2023-11-19T14:42:23;10.20;42.30
80695;DHT22;70059;42.702;23.312;2023-11-19T14:44:51;9.90;42.60
80695;DHT22;70059;42.702;23.312;2023-11-19T14:47:18;9.70;43.50
80695;DHT22;70059;42.702;23.312;2023-11-19T14:49:45;9.60;43.70
80695;DHT22;70059;42.702;23.312;2023-11-19T14:52:11;9.50;44.00
80695;DHT22;70059;42.702;23.312;2023-11-19T14:54:37;9.20;45.20
80695;DHT22;70059;42.702;23.312;2023-11-19T14:57:04;9.20;45.50
80695;DHT22;70059;42.702;23.312;2023-11-19T14:59:30;9.00;45.60
80695;DHT22;70059;42.702;23.312;2023-11-19T15:01:57;9.00;46.40
80695;DHT22;70059;42.702;23.312;2023-11-19T15:04:23;8.80;46.60
80695;DHT22;70059;42.702;23.312;2023-11-19T15:06:48;8.80;46.80
80695;DHT22;70059;42.702;23.312;2023-11-19T15:09:14;8.70;47.40
80695;DHT22;70059;42.702;23.312;2023-11-19T15:11:45;8.60;47.40
80695;DHT22;70059;42.702;23.312;2023-11-19T15:14:14;8.40;47.60
80695;DHT22;70059;42.702;23.312;2023-11-19T15:16:45;8.30;48.20
80695;DHT22;70059;42.702;23.312;2023-11-19T15:19:12;8.20;49.00
80695;DHT22;70059;42.702;23.312;2023-11-19T15:21:40;8.10;49.60
80695;DHT22;70059;42.702;23.312;2023-11-19T15:24:06;8.00;49.70
80695;DHT22;70059;42.702;23.312;2023-11-19T15:26:36;8.00;49.80
80695;DHT22;70059;42.702;23.312;2023-11-19T15:29:02;7.90;49.90
80695;DHT22;70059;42.702;23.312;2023-11-19T15:31:28;7.70;50.60
80695;DHT22;70059;42.702;23.312;2023-11-19T15:33:54;7.70;50.50
80695;DHT22;70059;42.702;23.312;2023-11-19T15:36:20;7.60;50.80
80695;DHT22;70059;42.702;23.312;2023-11-19T15:38:46;7.50;51.10
80695;DHT22;70059;42.702;23.312;2023-11-19T15:41:12;7.50;51.10
80695;DHT22;70059;42.702;23.312;2023-11-19T15:43:38;7.40;51.70
80695;DHT22;70059;42.702;23.312;2023-11-19T15:46:08;7.50;51.90
80695;DHT22;70059;42.702;23.312;2023-11-19T15:48:34;7.40;51.90
80695;DHT22;70059;42.702;23.312;2023-11-19T15:51:00;7.30;52.10
80695;DHT22;70059;42.702;23.312;2023-11-19T15:53:26;7.20;52.40
80695;DHT22;70059;42.702;23.312;2023-11-19T15:55:52;7.10;52.70
80695;DHT22;70059;42.702;23.312;2023-11-19T15:58:20;7.10;53.00
80695;DHT22;70059;42.702;23.312;2023-11-19T16:00:48;7.10;53.20